createdAt,value
2016-06-28T00:00:07.927Z,13.6
2016-06-28T00:00:17.935Z,13.52
2016-06-28T00:00:27.932Z,13.6
2016-06-28T00:00:37.942Z,13.51
2016-06-28T00:00:47.312Z,13.48
2016-06-28T00:00:57.947Z,13.51
2016-06-28T00:01:07.967Z,13.49
2016-06-28T00:01:17.334Z,13.52
2016-06-28T00:01:27.982Z,13.51
2016-06-28T00:01:37.983Z,13.48
2016-06-28T00:01:47.989Z,13.49
2016-06-28T00:01:57.982Z,13.48
2016-06-28T00:02:07.984Z,13.49
2016-06-28T00:02:18.004Z,13.52
2016-06-28T00:02:27.993Z,13.52
2016-06-28T00:02:37.361Z,13.54
2016-06-28T00:02:48.012Z,13.49
2016-06-28T00:02:58.024Z,13.52
2016-06-28T00:03:08.030Z,13.51
2016-06-28T00:03:18.038Z,13.48
2016-06-28T00:03:28.037Z,13.63
2016-06-28T00:03:38.039Z,13.62
2016-06-28T00:03:47.406Z,13.54
2016-06-28T00:03:57.407Z,13.52
2016-06-28T00:04:08.051Z,13.67
2016-06-28T00:04:18.054Z,13.52
2016-06-28T00:04:28.059Z,13.66
2016-06-28T00:04:38.067Z,13.52
2016-06-28T00:04:48.069Z,13.51
2016-06-28T00:04:58.077Z,13.54
2016-06-28T00:05:07.438Z,13.66
2016-06-28T00:05:17.456Z,13.48
2016-06-28T00:05:28.085Z,13.66
2016-06-28T00:05:38.109Z,13.55
2016-06-28T00:05:48.101Z,13.67
2016-06-28T00:05:58.111Z,13.48
2016-06-28T00:06:08.103Z,13.51
2016-06-28T00:06:18.123Z,13.63
2016-06-28T00:06:28.120Z,13.54
2016-06-28T00:06:38.120Z,13.51
2016-06-28T00:06:47.486Z,13.57
2016-06-28T00:06:58.135Z,13.62
2016-06-28T00:07:08.137Z,13.63
2016-06-28T00:07:17.534Z,13.63
2016-06-28T00:07:28.145Z,13.55
2016-06-28T00:07:38.151Z,13.64
2016-06-28T00:07:47.520Z,13.66
2016-06-28T00:07:57.524Z,13.66
2016-06-28T00:08:07.537Z,13.57
2016-06-28T00:08:17.539Z,13.51
2016-06-28T00:08:28.186Z,13.59
2016-06-28T00:08:38.186Z,13.55
2016-06-28T00:08:48.188Z,13.6
2016-06-28T00:08:58.202Z,13.63
2016-06-28T00:09:08.194Z,13.54
2016-06-28T00:09:18.209Z,13.63
2016-06-28T00:09:27.578Z,13.66
2016-06-28T00:09:38.214Z,13.64
2016-06-28T00:09:48.217Z,13.6
2016-06-28T00:09:58.221Z,13.62
2016-06-28T00:10:08.233Z,13.62
2016-06-28T00:10:18.238Z,13.62
2016-06-28T00:10:27.610Z,13.64
2016-06-28T00:10:38.242Z,13.59
2016-06-28T00:10:48.250Z,13.52
2016-06-28T00:10:58.255Z,13.62
2016-06-28T00:11:07.630Z,13.62
2016-06-28T00:11:18.263Z,13.64
2016-06-28T00:11:28.266Z,13.64
2016-06-28T00:11:38.274Z,13.55
2016-06-28T00:11:48.280Z,13.57
2016-06-28T00:11:57.644Z,13.59
2016-06-28T00:12:08.289Z,13.59
2016-06-28T00:12:18.315Z,13.59
2016-06-28T00:12:28.306Z,13.66
2016-06-28T00:12:38.312Z,13.62
2016-06-28T00:12:48.314Z,13.66
2016-06-28T00:12:58.335Z,13.54
2016-06-28T00:13:07.676Z,13.62
2016-06-28T00:13:18.323Z,13.67
2016-06-28T00:13:28.344Z,13.64
2016-06-28T00:13:38.332Z,13.6
2016-06-28T00:13:48.343Z,13.59
2016-06-28T00:13:57.711Z,13.63
2016-06-28T00:14:08.356Z,13.55
2016-06-28T00:14:17.722Z,13.62
2016-06-28T00:14:28.355Z,13.62
2016-06-28T00:14:38.370Z,13.66
2016-06-28T00:14:48.378Z,13.6
2016-06-28T00:14:57.748Z,13.57
2016-06-28T00:15:07.748Z,13.6
2016-06-28T00:15:18.395Z,13.59
2016-06-28T00:15:28.387Z,13.64
2016-06-28T00:15:38.464Z,13.62
2016-06-28T00:15:48.409Z,13.59
2016-06-28T00:15:58.404Z,13.57
2016-06-28T00:16:08.419Z,13.62
2016-06-28T00:16:18.412Z,13.63
2016-06-28T00:16:28.423Z,13.63
2016-06-28T00:16:37.791Z,13.66
2016-06-28T00:16:48.439Z,13.62
2016-06-28T00:16:57.800Z,13.63
2016-06-28T00:17:08.442Z,13.62
2016-06-28T00:17:18.458Z,13.59
2016-06-28T00:17:28.475Z,13.64
2016-06-28T00:17:37.822Z,13.64
2016-06-28T00:17:48.457Z,13.67
2016-06-28T00:17:58.470Z,13.59
2016-06-28T00:18:08.471Z,13.55
2016-06-28T00:18:18.470Z,13.57
2016-06-28T00:18:27.848Z,13.66
2016-06-28T00:18:38.493Z,13.6
2016-06-28T00:18:48.503Z,13.6
2016-06-28T00:18:57.862Z,13.63
2016-06-28T00:19:08.508Z,13.63
2016-06-28T00:19:18.524Z,13.54
2016-06-28T00:19:28.514Z,13.66
2016-06-28T00:19:37.874Z,13.64
2016-06-28T00:19:48.531Z,13.6
2016-06-28T00:19:58.522Z,13.67
2016-06-28T00:20:07.889Z,13.59
2016-06-28T00:20:18.539Z,13.63
2016-06-28T00:20:28.544Z,13.62
2016-06-28T00:20:38.548Z,13.64
2016-06-28T00:20:48.568Z,13.6
2016-06-28T00:20:58.560Z,13.59
2016-06-28T00:21:08.568Z,13.66
2016-06-28T00:21:18.574Z,13.59
2016-06-28T00:21:27.967Z,13.57
2016-06-28T00:21:37.945Z,13.59
2016-06-28T00:21:48.603Z,13.62
2016-06-28T00:21:58.818Z,13.66
2016-06-28T00:22:08.590Z,13.62
2016-06-28T00:22:17.963Z,13.63
2016-06-28T00:22:28.603Z,13.62
2016-06-28T00:22:38.601Z,13.6
2016-06-28T00:22:48.612Z,13.67
2016-06-28T00:22:58.627Z,13.6
2016-06-28T00:23:08.624Z,13.59
2016-06-28T00:23:18.634Z,13.67
2016-06-28T00:23:28.636Z,13.66
2016-06-28T00:23:38.642Z,13.63
2016-06-28T00:23:48.641Z,13.59
2016-06-28T00:23:58.654Z,13.6
2016-06-28T00:24:08.024Z,13.57
2016-06-28T00:24:18.034Z,13.63
2016-06-28T00:24:28.664Z,13.63
2016-06-28T00:24:38.666Z,13.59
2016-06-28T00:24:48.681Z,13.6
2016-06-28T00:24:58.696Z,13.6
2016-06-28T00:25:08.682Z,13.66
2016-06-28T00:25:18.690Z,13.59
2016-06-28T00:25:28.073Z,13.59
2016-06-28T00:25:38.715Z,13.55
2016-06-28T00:25:48.697Z,13.59
2016-06-28T00:25:58.712Z,13.57
2016-06-28T00:26:08.717Z,13.62
2016-06-28T00:26:18.723Z,13.55
2016-06-28T00:26:28.734Z,13.6
2016-06-28T00:26:38.096Z,13.59
2016-06-28T00:26:48.740Z,13.54
2016-06-28T00:26:58.741Z,13.63
2016-06-28T00:27:08.111Z,13.6
2016-06-28T00:27:18.748Z,13.59
2016-06-28T00:27:28.758Z,13.63
2016-06-28T00:27:38.124Z,13.6
2016-06-28T00:27:48.772Z,13.59
2016-06-28T00:27:58.768Z,13.55
2016-06-28T00:28:08.777Z,13.64
2016-06-28T00:28:18.798Z,13.59
2016-06-28T00:28:28.787Z,13.62
2016-06-28T00:28:38.791Z,13.59
2016-06-28T00:28:48.171Z,13.59
2016-06-28T00:28:58.802Z,13.6
2016-06-28T00:29:08.168Z,13.63
2016-06-28T00:29:18.806Z,13.55
2016-06-28T00:29:28.827Z,13.63
2016-06-28T00:29:38.831Z,13.62
2016-06-28T00:29:48.829Z,13.59
2016-06-28T00:29:58.836Z,13.59
2016-06-28T00:30:08.839Z,13.6
2016-06-28T00:30:18.205Z,13.63
2016-06-28T00:30:28.875Z,13.55
2016-06-28T00:30:38.859Z,13.59
2016-06-28T00:30:48.875Z,13.62
2016-06-28T00:30:58.864Z,13.6
2016-06-28T00:31:08.872Z,13.63
2016-06-28T00:31:18.868Z,13.63
2016-06-28T00:31:28.871Z,13.57
2016-06-28T00:31:38.877Z,13.6
2016-06-28T00:31:48.889Z,13.66
2016-06-28T00:31:58.266Z,13.59
2016-06-28T00:32:08.930Z,13.6
2016-06-28T00:32:18.911Z,13.6
2016-06-28T00:32:28.911Z,13.57
2016-06-28T00:32:38.278Z,13.62
2016-06-28T00:32:48.925Z,13.54
2016-06-28T00:32:58.936Z,13.63
2016-06-28T00:33:08.933Z,13.66
2016-06-28T00:33:18.934Z,13.6
2016-06-28T00:33:28.948Z,13.6
2016-06-28T00:33:38.948Z,13.59
2016-06-28T00:33:48.946Z,13.59
2016-06-28T00:33:58.956Z,13.57
2016-06-28T00:34:08.973Z,13.59
2016-06-28T00:34:18.971Z,13.63
2016-06-28T00:34:28.969Z,13.6
2016-06-28T00:34:38.977Z,13.6
2016-06-28T00:34:48.343Z,13.64
2016-06-28T00:34:58.350Z,13.6
2016-06-28T00:35:08.993Z,13.59
2016-06-28T00:35:18.991Z,13.59
2016-06-28T00:35:29.011Z,13.59
2016-06-28T00:35:39.010Z,13.66
2016-06-28T00:35:49.028Z,13.69
2016-06-28T00:35:59.025Z,13.63
2016-06-28T00:36:09.034Z,13.55
2016-06-28T00:36:19.025Z,13.63
2016-06-28T00:36:29.037Z,13.62
2016-06-28T00:36:39.041Z,13.6
2016-06-28T00:36:49.048Z,13.6
2016-06-28T00:36:59.053Z,13.59
2016-06-28T00:37:09.052Z,13.67
2016-06-28T00:37:19.056Z,13.63
2016-06-28T00:37:29.066Z,13.55
2016-06-28T00:37:39.075Z,13.71
2016-06-28T00:37:49.073Z,13.57
2016-06-28T00:37:59.082Z,13.59
2016-06-28T00:38:09.082Z,13.6
2016-06-28T00:38:19.111Z,13.64
2016-06-28T00:38:28.510Z,13.63
2016-06-28T00:38:38.470Z,13.62
2016-06-28T00:38:49.114Z,13.63
2016-06-28T00:38:59.111Z,13.59
2016-06-28T00:39:09.123Z,13.59
2016-06-28T00:39:18.481Z,13.6
2016-06-28T00:39:29.128Z,13.57
2016-06-28T00:39:39.135Z,13.63
2016-06-28T00:39:49.136Z,13.67
2016-06-28T00:39:59.143Z,13.67
2016-06-28T00:40:09.149Z,13.64
2016-06-28T00:40:19.155Z,13.66
2016-06-28T00:40:29.160Z,13.64
2016-06-28T00:40:38.524Z,13.67
2016-06-28T00:40:49.180Z,13.63
2016-06-28T00:40:59.174Z,13.71
2016-06-28T00:41:09.180Z,13.63
2016-06-28T00:41:19.180Z,13.63
2016-06-28T00:41:29.180Z,13.66
2016-06-28T00:41:38.551Z,13.64
2016-06-28T00:41:48.558Z,13.6
2016-06-28T00:41:58.575Z,13.63
2016-06-28T00:42:09.202Z,13.64
2016-06-28T00:42:19.220Z,13.63
2016-06-28T00:42:29.232Z,13.66
2016-06-28T00:42:39.223Z,13.69
2016-06-28T00:42:49.225Z,13.64
2016-06-28T00:42:59.235Z,13.7
2016-06-28T00:43:08.602Z,13.69
2016-06-28T00:43:19.243Z,13.69
2016-06-28T00:43:29.263Z,13.64
2016-06-28T00:43:39.250Z,13.67
2016-06-28T00:43:49.260Z,13.7
2016-06-28T00:43:58.633Z,13.71
2016-06-28T00:44:08.629Z,13.64
2016-06-28T00:44:19.269Z,13.67
2016-06-28T00:44:29.275Z,13.66
2016-06-28T00:44:38.644Z,13.69
2016-06-28T00:44:49.291Z,13.75
2016-06-28T00:44:59.295Z,13.71
2016-06-28T00:45:09.297Z,13.69
2016-06-28T00:45:18.664Z,13.71
2016-06-28T00:45:29.310Z,13.69
2016-06-28T00:45:39.317Z,13.67
2016-06-28T00:45:48.683Z,13.64
2016-06-28T00:45:59.321Z,13.71
2016-06-28T00:46:09.333Z,13.71
2016-06-28T00:46:19.336Z,13.73
2016-06-28T00:46:29.341Z,13.67
2016-06-28T00:46:39.344Z,13.67
2016-06-28T00:46:49.355Z,13.67
2016-06-28T00:46:59.359Z,13.69
2016-06-28T00:47:09.354Z,13.71
2016-06-28T00:47:19.362Z,13.66
2016-06-28T00:47:29.364Z,13.73
2016-06-28T00:47:38.750Z,13.64
2016-06-28T00:47:49.380Z,13.67
2016-06-28T00:47:59.377Z,13.62
2016-06-28T00:48:09.391Z,13.78
2016-06-28T00:48:19.399Z,13.75
2016-06-28T00:48:29.395Z,13.67
2016-06-28T00:48:39.402Z,13.73
2016-06-28T00:48:49.410Z,13.69
2016-06-28T00:48:59.413Z,13.69
2016-06-28T00:49:09.427Z,13.69
2016-06-28T00:49:19.426Z,13.75
2016-06-28T00:49:29.435Z,13.75
2016-06-28T00:49:39.431Z,13.73
2016-06-28T00:49:48.802Z,13.7
2016-06-28T00:49:59.452Z,13.64
2016-06-28T00:50:08.815Z,13.69
2016-06-28T00:50:19.500Z,13.64
2016-06-28T00:50:28.825Z,13.73
2016-06-28T00:50:39.461Z,13.69
2016-06-28T00:50:48.833Z,13.73
2016-06-28T00:50:59.475Z,13.64
2016-06-28T00:51:09.486Z,13.64
2016-06-28T00:51:19.486Z,13.69
2016-06-28T00:51:29.492Z,13.69
2016-06-28T00:51:39.498Z,13.69
2016-06-28T00:51:49.496Z,13.73
2016-06-28T00:51:59.499Z,13.67
2016-06-28T00:52:09.522Z,13.71
2016-06-28T00:52:19.520Z,13.69
2016-06-28T00:52:29.523Z,13.75
2016-06-28T00:52:39.525Z,13.67
2016-06-28T00:52:49.538Z,13.67
2016-06-28T00:52:58.905Z,13.67
2016-06-28T00:53:09.535Z,13.67
2016-06-28T00:53:19.539Z,13.7
2016-06-28T00:53:29.555Z,13.69
2016-06-28T00:53:39.563Z,13.67
2016-06-28T00:53:49.555Z,13.69
2016-06-28T00:53:59.563Z,13.71
2016-06-28T00:54:09.574Z,13.64
2016-06-28T00:54:19.571Z,13.7
2016-06-28T00:54:28.948Z,13.69
2016-06-28T00:54:39.589Z,13.69
2016-06-28T00:54:49.599Z,13.7
2016-06-28T00:54:59.600Z,13.66
2016-06-28T00:55:09.601Z,13.71
2016-06-28T00:55:18.967Z,13.63
2016-06-28T00:55:29.612Z,13.66
2016-06-28T00:55:38.975Z,13.6
2016-06-28T00:55:49.632Z,13.64
2016-06-28T00:55:58.993Z,13.7
2016-06-28T00:56:09.631Z,13.69
2016-06-28T00:56:19.630Z,13.69
2016-06-28T00:56:29.647Z,13.71
2016-06-28T00:56:39.645Z,13.64
2016-06-28T00:56:49.653Z,13.66
2016-06-28T00:56:59.024Z,13.64
2016-06-28T00:57:09.687Z,13.69
2016-06-28T00:57:19.683Z,13.63
2016-06-28T00:57:29.672Z,13.67
2016-06-28T00:57:39.683Z,13.66
2016-06-28T00:57:49.678Z,13.63
2016-06-28T00:57:59.704Z,13.66
2016-06-28T00:58:09.686Z,13.67
2016-06-28T00:58:19.689Z,13.69
2016-06-28T00:58:29.066Z,13.64
2016-06-28T00:58:39.730Z,13.64
2016-06-28T00:58:49.727Z,13.62
2016-06-28T00:58:59.713Z,13.62
2016-06-28T00:59:09.092Z,13.55
2016-06-28T00:59:19.721Z,13.63
2016-06-28T00:59:29.090Z,13.63
2016-06-28T00:59:39.095Z,13.54
2016-06-28T00:59:49.746Z,13.62
2016-06-28T00:59:59.753Z,13.63
2016-06-28T01:00:09.766Z,13.6
2016-06-28T01:00:19.782Z,13.59
2016-06-28T01:00:29.771Z,13.55
2016-06-28T01:00:39.790Z,13.62
2016-06-28T01:00:49.772Z,13.6
2016-06-28T01:00:59.143Z,13.6
2016-06-28T01:01:09.795Z,13.67
2016-06-28T01:01:19.801Z,13.63
2016-06-28T01:01:29.789Z,13.67
2016-06-28T01:01:39.817Z,13.63
2016-06-28T01:01:49.801Z,13.64
2016-06-28T01:01:59.803Z,13.63
2016-06-28T01:02:09.818Z,13.59
2016-06-28T01:02:19.178Z,13.6
2016-06-28T01:02:29.183Z,13.62
2016-06-28T01:02:39.821Z,13.6
2016-06-28T01:02:49.843Z,13.62
2016-06-28T01:02:59.840Z,13.63
2016-06-28T01:03:09.848Z,13.55
2016-06-28T01:03:19.852Z,13.63
2016-06-28T01:03:29.852Z,13.63
2016-06-28T01:03:39.863Z,13.62
2016-06-28T01:03:49.862Z,13.59
2016-06-28T01:03:59.235Z,13.6
2016-06-28T01:04:09.880Z,13.62
2016-06-28T01:04:19.893Z,13.6
2016-06-28T01:04:29.882Z,13.62
2016-06-28T01:04:39.888Z,13.64
2016-06-28T01:04:49.895Z,13.64
2016-06-28T01:04:59.901Z,13.52
2016-06-28T01:05:09.902Z,13.64
2016-06-28T01:05:19.922Z,13.63
2016-06-28T01:05:29.915Z,13.49
2016-06-28T01:05:39.941Z,13.67
2016-06-28T01:05:49.299Z,13.52
2016-06-28T01:05:59.941Z,13.48
2016-06-28T01:06:09.309Z,13.59
2016-06-28T01:06:19.294Z,13.48
2016-06-28T01:06:29.303Z,13.51
2016-06-28T01:06:39.954Z,13.52
2016-06-28T01:06:49.316Z,13.48
2016-06-28T01:06:59.954Z,13.52
2016-06-28T01:07:09.964Z,13.49
2016-06-28T01:07:19.975Z,13.59
2016-06-28T01:07:29.339Z,13.54
2016-06-28T01:07:39.344Z,13.49
2016-06-28T01:07:49.988Z,13.66
2016-06-28T01:07:59.348Z,13.52
2016-06-28T01:08:09.995Z,13.62
2016-06-28T01:08:20.009Z,13.49
2016-06-28T01:08:30.011Z,13.49
2016-06-28T01:08:40.011Z,13.57
2016-06-28T01:08:50.011Z,13.62
2016-06-28T01:09:00.025Z,13.52
2016-06-28T01:09:10.029Z,13.54
2016-06-28T01:09:19.392Z,13.52
2016-06-28T01:09:30.038Z,13.59
2016-06-28T01:09:39.404Z,13.46
2016-06-28T01:09:50.049Z,13.51
2016-06-28T01:09:59.419Z,13.6
2016-06-28T01:10:10.052Z,13.51
2016-06-28T01:10:20.063Z,13.62
2016-06-28T01:10:30.064Z,13.62
2016-06-28T01:10:40.063Z,13.6
2016-06-28T01:10:49.439Z,13.48
2016-06-28T01:10:59.443Z,13.6
2016-06-28T01:11:10.091Z,13.55
2016-06-28T01:11:20.089Z,13.49
2016-06-28T01:11:30.099Z,13.38
2016-06-28T01:11:40.100Z,13.49
2016-06-28T01:11:49.467Z,13.49
2016-06-28T01:12:00.124Z,13.59
2016-06-28T01:12:10.114Z,13.42
2016-06-28T01:12:20.119Z,13.55
2016-06-28T01:12:29.502Z,13.49
2016-06-28T01:12:40.130Z,13.49
2016-06-28T01:12:50.145Z,13.51
2016-06-28T01:13:00.146Z,13.52
2016-06-28T01:13:09.515Z,13.51
2016-06-28T01:13:20.150Z,13.55
2016-06-28T01:13:29.519Z,13.54
2016-06-28T01:13:40.180Z,13.52
2016-06-28T01:13:50.173Z,13.55
2016-06-28T01:14:00.178Z,13.55
2016-06-28T01:14:09.536Z,13.55
2016-06-28T01:14:20.192Z,13.55
2016-06-28T01:14:30.195Z,13.55
2016-06-28T01:14:40.195Z,13.48
2016-06-28T01:14:50.199Z,13.45
2016-06-28T01:15:00.212Z,13.55
2016-06-28T01:15:10.206Z,13.49
2016-06-28T01:15:20.211Z,13.54
2016-06-28T01:15:30.229Z,13.55
2016-06-28T01:15:39.585Z,13.54
2016-06-28T01:15:50.223Z,13.48
2016-06-28T01:16:00.259Z,13.52
2016-06-28T01:16:10.246Z,13.52
2016-06-28T01:16:20.286Z,13.46
2016-06-28T01:16:30.254Z,13.51
2016-06-28T01:16:40.274Z,13.48
2016-06-28T01:16:49.620Z,13.41
2016-06-28T01:17:00.265Z,13.52
2016-06-28T01:17:10.269Z,13.59
2016-06-28T01:17:19.642Z,13.52
2016-06-28T01:17:29.637Z,13.51
2016-06-28T01:17:40.286Z,13.55
2016-06-28T01:17:50.287Z,13.59
2016-06-28T01:18:00.299Z,13.49
2016-06-28T01:18:10.307Z,13.54
2016-06-28T01:18:19.665Z,13.51
2016-06-28T01:18:30.308Z,13.52
2016-06-28T01:18:40.320Z,13.41
2016-06-28T01:18:50.333Z,13.45
2016-06-28T01:19:00.327Z,13.54
2016-06-28T01:19:10.328Z,13.52
2016-06-28T01:19:20.342Z,13.54
2016-06-28T01:19:29.714Z,13.54
2016-06-28T01:19:40.351Z,13.51
2016-06-28T01:19:50.357Z,13.52
2016-06-28T01:20:00.347Z,13.49
2016-06-28T01:20:10.358Z,13.45
2016-06-28T01:20:20.379Z,13.49
2016-06-28T01:20:30.365Z,13.57
2016-06-28T01:20:40.379Z,13.49
2016-06-28T01:20:49.743Z,13.49
2016-06-28T01:20:59.753Z,13.41
2016-06-28T01:21:10.387Z,13.54
2016-06-28T01:21:20.406Z,13.55
2016-06-28T01:21:29.780Z,13.46
2016-06-28T01:21:40.403Z,13.51
2016-06-28T01:21:50.404Z,13.52
2016-06-28T01:22:00.427Z,13.52
2016-06-28T01:22:10.418Z,13.52
2016-06-28T01:22:20.423Z,13.52
2016-06-28T01:22:29.806Z,13.51
2016-06-28T01:22:40.483Z,13.6
2016-06-28T01:22:49.810Z,13.51
2016-06-28T01:23:00.453Z,13.49
2016-06-28T01:23:10.446Z,13.45
2016-06-28T01:23:20.456Z,13.49
2016-06-28T01:23:30.458Z,13.48
2016-06-28T01:23:40.460Z,13.52
2016-06-28T01:23:49.838Z,13.41
2016-06-28T01:24:00.479Z,13.54
2016-06-28T01:24:09.847Z,13.45
2016-06-28T01:24:19.854Z,13.51
2016-06-28T01:24:30.501Z,13.49
2016-06-28T01:24:39.871Z,13.54
2016-06-28T01:24:49.863Z,13.51
2016-06-28T01:24:59.865Z,13.54
2016-06-28T01:25:10.519Z,13.42
2016-06-28T01:25:20.516Z,13.48
2016-06-28T01:25:29.893Z,13.48
2016-06-28T01:25:40.532Z,13.52
2016-06-28T01:25:50.547Z,13.51
2016-06-28T01:26:00.543Z,13.46
2016-06-28T01:26:09.908Z,13.44
2016-06-28T01:26:20.551Z,13.54
2016-06-28T01:26:30.549Z,13.52
2016-06-28T01:26:40.550Z,13.52
2016-06-28T01:26:50.555Z,13.49
2016-06-28T01:27:00.563Z,13.51
2016-06-28T01:27:09.926Z,13.49
2016-06-28T01:27:20.576Z,13.48
2016-06-28T01:27:30.586Z,13.49
2016-06-28T01:27:40.590Z,13.45
2016-06-28T01:27:49.960Z,13.51
2016-06-28T01:27:59.961Z,13.48
2016-06-28T01:28:10.605Z,13.51
2016-06-28T01:28:20.614Z,13.42
2016-06-28T01:28:30.610Z,13.36
2016-06-28T01:28:40.612Z,13.52
2016-06-28T01:28:50.637Z,13.51
2016-06-28T01:29:00.623Z,13.54
2016-06-28T01:29:09.992Z,13.49
2016-06-28T01:29:20.006Z,13.49
2016-06-28T01:29:30.674Z,13.55
2016-06-28T01:29:40.652Z,13.44
2016-06-28T01:29:50.665Z,13.49
2016-06-28T01:30:00.027Z,13.45
2016-06-28T01:30:10.664Z,13.55
2016-06-28T01:30:20.678Z,13.54
2016-06-28T01:30:30.039Z,13.49
2016-06-28T01:30:40.673Z,13.45
2016-06-28T01:30:50.679Z,13.48
2016-06-28T01:31:00.066Z,13.45
2016-06-28T01:31:10.715Z,13.45
2016-06-28T01:31:20.700Z,13.54
2016-06-28T01:31:30.705Z,13.52
2016-06-28T01:31:40.714Z,13.45
2016-06-28T01:31:50.715Z,13.42
2016-06-28T01:32:00.747Z,13.46
2016-06-28T01:32:10.729Z,13.48
2016-06-28T01:32:20.093Z,13.49
2016-06-28T01:32:30.756Z,13.54
2016-06-28T01:32:40.742Z,13.49
2016-06-28T01:32:50.742Z,13.45
2016-06-28T01:33:00.756Z,13.51
2016-06-28T01:33:10.751Z,13.45
2016-06-28T01:33:20.760Z,13.46
2016-06-28T01:33:30.764Z,13.46
2016-06-28T01:33:40.766Z,13.39
2016-06-28T01:33:50.778Z,13.49
2016-06-28T01:34:00.786Z,13.45
2016-06-28T01:34:10.779Z,13.46
2016-06-28T01:34:20.792Z,13.48
2016-06-28T01:34:30.829Z,13.48
2016-06-28T01:34:40.802Z,13.44
2016-06-28T01:34:50.806Z,13.42
2016-06-28T01:35:00.814Z,13.45
2016-06-28T01:35:10.820Z,13.45
2016-06-28T01:35:20.819Z,13.45
2016-06-28T01:35:30.824Z,13.46
2016-06-28T01:35:40.828Z,13.41
2016-06-28T01:35:50.852Z,13.46
2016-06-28T01:36:00.866Z,13.48
2016-06-28T01:36:10.842Z,13.44
2016-06-28T01:36:20.848Z,13.39
2016-06-28T01:36:30.862Z,13.42
2016-06-28T01:36:40.862Z,13.44
2016-06-28T01:36:50.870Z,13.41
2016-06-28T01:37:00.899Z,13.42
2016-06-28T01:37:10.879Z,13.46
2016-06-28T01:37:20.879Z,13.42
2016-06-28T01:37:30.886Z,13.42
2016-06-28T01:37:40.884Z,13.41
2016-06-28T01:37:50.893Z,13.36
2016-06-28T01:38:00.896Z,13.42
2016-06-28T01:38:10.899Z,13.41
2016-06-28T01:38:20.275Z,13.38
2016-06-28T01:38:30.277Z,13.39
2016-06-28T01:38:40.922Z,13.41
2016-06-28T01:38:50.926Z,13.39
2016-06-28T01:39:00.932Z,13.39
2016-06-28T01:39:10.946Z,13.33
2016-06-28T01:39:20.938Z,13.39
2016-06-28T01:39:30.939Z,13.41
2016-06-28T01:39:40.985Z,13.41
2016-06-28T01:39:50.319Z,13.39
2016-06-28T01:40:00.315Z,13.33
2016-06-28T01:40:10.331Z,13.41
2016-06-28T01:40:20.993Z,13.32
2016-06-28T01:40:30.980Z,13.36
2016-06-28T01:40:40.351Z,13.38
2016-06-28T01:40:50.978Z,13.38
2016-06-28T01:41:00.991Z,13.36
2016-06-28T01:41:11.000Z,13.33
2016-06-28T01:41:21.014Z,13.33
2016-06-28T01:41:31.005Z,13.38
2016-06-28T01:41:40.371Z,13.3
2016-06-28T01:41:51.011Z,13.33
2016-06-28T01:42:01.028Z,13.39
2016-06-28T01:42:11.025Z,13.39
2016-06-28T01:42:21.034Z,13.38
2016-06-28T01:42:31.042Z,13.3
2016-06-28T01:42:41.046Z,13.3
2016-06-28T01:42:51.054Z,13.33
2016-06-28T01:43:01.067Z,13.33
2016-06-28T01:43:11.065Z,13.3
2016-06-28T01:43:21.059Z,13.29
2016-06-28T01:43:31.091Z,13.38
2016-06-28T01:43:40.436Z,13.32
2016-06-28T01:43:51.081Z,13.28
2016-06-28T01:44:01.079Z,13.23
2016-06-28T01:44:11.094Z,13.33
2016-06-28T01:44:20.450Z,13.33
2016-06-28T01:44:31.098Z,13.26
2016-06-28T01:44:41.102Z,13.32
2016-06-28T01:44:50.475Z,13.3
2016-06-28T01:45:00.476Z,13.3
2016-06-28T01:45:10.478Z,13.33
2016-06-28T01:45:21.114Z,13.3
2016-06-28T01:45:31.120Z,13.36
2016-06-28T01:45:41.127Z,13.33
2016-06-28T01:45:51.141Z,13.33
2016-06-28T01:46:01.135Z,13.36
2016-06-28T01:46:10.518Z,13.23
2016-06-28T01:46:21.154Z,13.29
2016-06-28T01:46:31.162Z,13.32
2016-06-28T01:46:41.160Z,13.29
2016-06-28T01:46:50.536Z,13.32
2016-06-28T01:47:01.179Z,13.36
2016-06-28T01:47:10.529Z,13.22
2016-06-28T01:47:21.177Z,13.32
2016-06-28T01:47:31.198Z,13.3
2016-06-28T01:47:41.191Z,13.29
2016-06-28T01:47:51.198Z,13.26
2016-06-28T01:48:01.195Z,13.26
2016-06-28T01:48:11.212Z,13.36
2016-06-28T01:48:21.215Z,13.23
2016-06-28T01:48:31.220Z,13.32
2016-06-28T01:48:40.590Z,13.19
2016-06-28T01:48:50.601Z,13.23
2016-06-28T01:49:01.232Z,13.32
2016-06-28T01:49:11.229Z,13.33
2016-06-28T01:49:20.601Z,13.29
2016-06-28T01:49:31.242Z,13.26
2016-06-28T01:49:41.247Z,13.3
2016-06-28T01:49:51.261Z,13.3
2016-06-28T01:50:01.290Z,13.32
2016-06-28T01:50:11.265Z,13.33
2016-06-28T01:50:21.268Z,13.29
2016-06-28T01:50:31.275Z,13.36
2016-06-28T01:50:40.654Z,13.3
2016-06-28T01:50:51.288Z,13.28
2016-06-28T01:51:01.297Z,13.19
2016-06-28T01:51:11.300Z,13.19
2016-06-28T01:51:21.297Z,13.3
2016-06-28T01:51:31.309Z,13.3
2016-06-28T01:51:41.319Z,13.32
2016-06-28T01:51:51.325Z,13.29
2016-06-28T01:52:01.319Z,13.32
2016-06-28T01:52:11.331Z,13.28
2016-06-28T01:52:20.715Z,13.33
2016-06-28T01:52:31.343Z,13.33
2016-06-28T01:52:40.715Z,13.32
2016-06-28T01:52:51.366Z,13.38
2016-06-28T01:53:01.353Z,13.38
2016-06-28T01:53:11.357Z,13.32
2016-06-28T01:53:21.362Z,13.36
2016-06-28T01:53:30.735Z,13.33
2016-06-28T01:53:41.370Z,13.39
2016-06-28T01:53:51.381Z,13.36
2016-06-28T01:54:01.403Z,13.42
2016-06-28T01:54:11.412Z,13.3
2016-06-28T01:54:21.396Z,13.42
2016-06-28T01:54:31.397Z,13.39
2016-06-28T01:54:41.404Z,13.3
2016-06-28T01:54:51.404Z,13.44
2016-06-28T01:55:01.416Z,13.38
2016-06-28T01:55:11.431Z,13.36
2016-06-28T01:55:21.423Z,13.41
2016-06-28T01:55:31.424Z,13.32
2016-06-28T01:55:40.795Z,13.32
2016-06-28T01:55:50.807Z,13.44
2016-06-28T01:56:01.441Z,13.36
2016-06-28T01:56:10.809Z,13.42
2016-06-28T01:56:21.452Z,13.39
2016-06-28T01:56:31.467Z,13.42
2016-06-28T01:56:41.469Z,13.45
2016-06-28T01:56:51.463Z,13.42
2016-06-28T01:57:01.469Z,13.42
2016-06-28T01:57:11.486Z,13.42
2016-06-28T01:57:21.497Z,13.45
2016-06-28T01:57:30.866Z,13.39
2016-06-28T01:57:40.858Z,13.48
2016-06-28T01:57:51.508Z,13.44
2016-06-28T01:58:01.523Z,13.42
2016-06-28T01:58:11.512Z,13.46
2016-06-28T01:58:21.517Z,13.44
2016-06-28T01:58:31.526Z,13.49
2016-06-28T01:58:41.526Z,13.44
2016-06-28T01:58:51.523Z,13.44
2016-06-28T01:59:00.900Z,13.39
2016-06-28T01:59:11.539Z,13.41
2016-06-28T01:59:21.542Z,13.46
2016-06-28T01:59:30.910Z,13.46
2016-06-28T01:59:41.557Z,13.45
2016-06-28T01:59:51.567Z,13.46
2016-06-28T02:00:00.924Z,13.49
2016-06-28T02:00:11.575Z,13.46
2016-06-28T02:00:21.801Z,13.51
2016-06-28T02:00:31.579Z,13.48
2016-06-28T02:00:41.589Z,13.55
2016-06-28T02:00:50.950Z,13.54
2016-06-28T02:01:01.595Z,13.49
2016-06-28T02:01:11.601Z,13.49
2016-06-28T02:01:21.598Z,13.39
2016-06-28T02:01:31.616Z,13.52
2016-06-28T02:01:40.992Z,13.46
2016-06-28T02:01:51.618Z,13.46
2016-06-28T02:02:01.619Z,13.51
2016-06-28T02:02:10.995Z,13.57
2016-06-28T02:02:21.625Z,13.41
2016-06-28T02:02:31.639Z,13.57
2016-06-28T02:02:41.642Z,13.51
2016-06-28T02:02:51.651Z,13.52
2016-06-28T02:03:01.670Z,13.46
2016-06-28T02:03:11.670Z,13.44
2016-06-28T02:03:21.667Z,13.54
2016-06-28T02:03:31.718Z,13.51
2016-06-28T02:03:41.079Z,13.51
2016-06-28T02:03:51.687Z,13.51
2016-06-28T02:04:01.683Z,13.45
2016-06-28T02:04:11.687Z,13.44
2016-06-28T02:04:21.703Z,13.45
2016-06-28T02:04:31.715Z,13.51
2016-06-28T02:04:41.710Z,13.49
2016-06-28T02:04:51.715Z,13.48
2016-06-28T02:05:01.074Z,13.52
2016-06-28T02:05:11.725Z,13.48
2016-06-28T02:05:21.086Z,13.54
2016-06-28T02:05:31.732Z,13.48
2016-06-28T02:05:41.734Z,13.54
2016-06-28T02:05:51.738Z,13.48
2016-06-28T02:06:01.749Z,13.52
2016-06-28T02:06:11.117Z,13.49
2016-06-28T02:06:21.753Z,13.51
2016-06-28T02:06:31.762Z,13.51
2016-06-28T02:06:41.770Z,13.52
2016-06-28T02:06:51.781Z,13.49
2016-06-28T02:07:01.780Z,13.55
2016-06-28T02:07:11.789Z,13.54
2016-06-28T02:07:21.791Z,13.49
2016-06-28T02:07:31.147Z,13.51
2016-06-28T02:07:42.020Z,13.51
2016-06-28T02:07:51.798Z,13.55
2016-06-28T02:08:01.812Z,13.49
2016-06-28T02:08:11.815Z,13.49
2016-06-28T02:08:21.818Z,13.51
2016-06-28T02:08:31.832Z,13.48
2016-06-28T02:08:41.825Z,13.49
2016-06-28T02:08:51.828Z,13.48
2016-06-28T02:09:01.832Z,13.55
2016-06-28T02:09:11.857Z,13.48